sensor_id;sensor_type;location;lat;lon;timestamp;P1;durP1;ratioP1;P2;durP2;ratioP2
20743;SDS011;56303;52.160;-0.428;2022-07-23T00:01:11;7.23;;;2.70;;
20743;SDS011;56303;52.160;-0.428;2022-07-23T00:03:38;5.23;;;2.77;;
20743;SDS011;56303;52.160;-0.428;2022-07-23T00:06:05;4.80;;;2.77;;
20743;SDS011;56303;52.160;-0.428;2022-07-23T00:08:35;4.83;;;2.30;;
20743;SDS011;56303;52.160;-0.428;2022-07-23T00:11:02;3.10;;;2.23;;
20743;SDS011;56303;52.160;-0.428;2022-07-23T00:13:29;7.03;;;2.97;;
20743;SDS011;56303;52.160;-0.428;2022-07-23T00:15:55;5.77;;;2.50;;
20743;SDS011;56303;52.160;-0.428;2022-07-23T00:18:22;3.33;;;2.57;;
20743;SDS011;56303;52.160;-0.428;2022-07-23T00:20:49;5.00;;;2.47;;
20743;SDS011;56303;52.160;-0.428;2022-07-23T00:23:17;5.37;;;2.40;;
20743;SDS011;56303;52.160;-0.428;2022-07-23T00:25:44;5.47;;;2.90;;
20743;SDS011;56303;52.160;-0.428;2022-07-23T00:28:11;4.47;;;2.50;;
20743;SDS011;56303;52.160;-0.428;2022-07-23T00:30:38;4.83;;;2.70;;
20743;SDS011;56303;52.160;-0.428;2022-07-23T00:33:06;4.50;;;2.50;;
20743;SDS011;56303;52.160;-0.428;2022-07-23T00:35:34;4.33;;;2.60;;
20743;SDS011;56303;52.160;-0.428;2022-07-23T00:38:03;4.47;;;2.57;;
20743;SDS011;56303;52.160;-0.428;2022-07-23T00:40:31;4.47;;;2.60;;
20743;SDS011;56303;52.160;-0.428;2022-07-23T00:42:58;6.40;;;3.00;;
20743;SDS011;56303;52.160;-0.428;2022-07-23T00:45:26;6.53;;;2.80;;
20743;SDS011;56303;52.160;-0.428;2022-07-23T00:47:54;6.20;;;2.73;;
20743;SDS011;56303;52.160;-0.428;2022-07-23T00:50:21;4.73;;;2.90;;
20743;SDS011;56303;52.160;-0.428;2022-07-23T00:52:48;4.30;;;2.40;;
20743;SDS011;56303;52.160;-0.428;2022-07-23T00:55:15;5.73;;;2.97;;
20743;SDS011;56303;52.160;-0.428;2022-07-23T00:57:42;5.03;;;2.70;;
20743;SDS011;56303;52.160;-0.428;2022-07-23T01:00:11;6.33;;;2.80;;
20743;SDS011;56303;52.160;-0.428;2022-07-23T01:02:39;5.17;;;2.93;;
20743;SDS011;56303;52.160;-0.428;2022-07-23T01:05:07;4.07;;;2.60;;
20743;SDS011;56303;52.160;-0.428;2022-07-23T01:07:34;5.40;;;2.80;;
20743;SDS011;56303;52.160;-0.428;2022-07-23T01:10:01;6.80;;;2.80;;
20743;SDS011;56303;52.160;-0.428;2022-07-23T01:12:29;5.50;;;2.70;;
20743;SDS011;56303;52.160;-0.428;2022-07-23T01:14:58;6.60;;;3.10;;
20743;SDS011;56303;52.160;-0.428;2022-07-23T01:17:26;4.17;;;2.70;;
20743;SDS011;56303;52.160;-0.428;2022-07-23T01:19:54;4.50;;;2.53;;
20743;SDS011;56303;52.160;-0.428;2022-07-23T01:22:21;5.83;;;3.17;;
20743;SDS011;56303;52.160;-0.428;2022-07-23T01:24:48;4.60;;;2.83;;
20743;SDS011;56303;52.160;-0.428;2022-07-23T01:27:15;5.37;;;2.97;;
20743;SDS011;56303;52.160;-0.428;2022-07-23T01:29:44;6.47;;;3.20;;
20743;SDS011;56303;52.160;-0.428;2022-07-23T01:32:11;4.47;;;2.87;;
20743;SDS011;56303;52.160;-0.428;2022-07-23T01:34:38;5.23;;;2.97;;
20743;SDS011;56303;52.160;-0.428;2022-07-23T01:37:06;4.60;;;2.53;;
20743;SDS011;56303;52.160;-0.428;2022-07-23T01:39:32;7.67;;;3.30;;
20743;SDS011;56303;52.160;-0.428;2022-07-23T01:42:00;4.50;;;3.00;;
20743;SDS011;56303;52.160;-0.428;2022-07-23T01:44:27;7.17;;;3.27;;
20743;SDS011;56303;52.160;-0.428;2022-07-23T01:46:55;5.77;;;3.03;;
20743;SDS011;56303;52.160;-0.428;2022-07-23T01:49:22;6.27;;;3.20;;
20743;SDS011;56303;52.160;-0.428;2022-07-23T01:51:49;7.03;;;3.33;;
20743;SDS011;56303;52.160;-0.428;2022-07-23T01:54:28;6.03;;;3.00;;
20743;SDS011;56303;52.160;-0.428;2022-07-23T01:56:57;5.50;;;3.13;;
20743;SDS011;56303;52.160;-0.428;2022-07-23T01:59:25;4.30;;;3.20;;
20743;SDS011;56303;52.160;-0.428;2022-07-23T02:01:52;6.67;;;3.07;;
20743;SDS011;56303;52.160;-0.428;2022-07-23T02:04:20;6.37;;;3.30;;
20743;SDS011;56303;52.160;-0.428;2022-07-23T02:06:48;6.00;;;3.60;;
20743;SDS011;56303;52.160;-0.428;2022-07-23T02:09:15;5.37;;;3.30;;
20743;SDS011;56303;52.160;-0.428;2022-07-23T02:11:42;6.37;;;4.13;;
20743;SDS011;56303;52.160;-0.428;2022-07-23T02:14:09;7.83;;;3.73;;
20743;SDS011;56303;52.160;-0.428;2022-07-23T02:16:36;11.67;;;3.97;;
20743;SDS011;56303;52.160;-0.428;2022-07-23T02:19:03;5.43;;;3.47;;
20743;SDS011;56303;52.160;-0.428;2022-07-23T02:21:30;6.57;;;3.43;;
20743;SDS011;56303;52.160;-0.428;2022-07-23T02:23:57;5.77;;;3.37;;
20743;SDS011;56303;52.160;-0.428;2022-07-23T02:26:24;5.53;;;2.90;;
20743;SDS011;56303;52.160;-0.428;2022-07-23T02:28:51;7.97;;;3.70;;
20743;SDS011;56303;52.160;-0.428;2022-07-23T02:31:19;6.07;;;3.07;;
20743;SDS011;56303;52.160;-0.428;2022-07-23T02:33:46;7.13;;;3.40;;
20743;SDS011;56303;52.160;-0.428;2022-07-23T02:36:13;6.27;;;3.80;;
20743;SDS011;56303;52.160;-0.428;2022-07-23T02:38:40;6.10;;;3.03;;
20743;SDS011;56303;52.160;-0.428;2022-07-23T02:41:07;6.90;;;3.57;;
20743;SDS011;56303;52.160;-0.428;2022-07-23T02:43:35;8.83;;;3.30;;
20743;SDS011;56303;52.160;-0.428;2022-07-23T02:46:02;7.80;;;3.87;;
20743;SDS011;56303;52.160;-0.428;2022-07-23T02:48:28;6.73;;;4.00;;
20743;SDS011;56303;52.160;-0.428;2022-07-23T02:50:55;5.17;;;3.73;;
20743;SDS011;56303;52.160;-0.428;2022-07-23T02:53:23;5.30;;;3.43;;
20743;SDS011;56303;52.160;-0.428;2022-07-23T02:55:49;4.27;;;3.57;;
20743;SDS011;56303;52.160;-0.428;2022-07-23T02:58:16;5.17;;;3.73;;
20743;SDS011;56303;52.160;-0.428;2022-07-23T03:00:43;5.50;;;3.93;;
20743;SDS011;56303;52.160;-0.428;2022-07-23T03:03:10;5.47;;;3.33;;
20743;SDS011;56303;52.160;-0.428;2022-07-23T03:05:37;7.17;;;3.80;;
20743;SDS011;56303;52.160;-0.428;2022-07-23T03:08:04;5.03;;;3.97;;
20743;SDS011;56303;52.160;-0.428;2022-07-23T03:10:31;8.63;;;4.33;;
20743;SDS011;56303;52.160;-0.428;2022-07-23T03:12:58;7.63;;;4.00;;
20743;SDS011;56303;52.160;-0.428;2022-07-23T03:15:25;7.03;;;4.20;;
20743;SDS011;56303;52.160;-0.428;2022-07-23T03:17:51;7.83;;;3.97;;
20743;SDS011;56303;52.160;-0.428;2022-07-23T03:20:18;5.13;;;3.17;;
20743;SDS011;56303;52.160;-0.428;2022-07-23T03:22:45;6.63;;;4.73;;
20743;SDS011;56303;52.160;-0.428;2022-07-23T03:25:12;8.20;;;4.40;;
20743;SDS011;56303;52.160;-0.428;2022-07-23T03:27:39;7.13;;;4.27;;
20743;SDS011;56303;52.160;-0.428;2022-07-23T03:30:06;5.47;;;3.93;;
20743;SDS011;56303;52.160;-0.428;2022-07-23T03:32:33;8.50;;;4.17;;
20743;SDS011;56303;52.160;-0.428;2022-07-23T03:35:00;7.63;;;4.43;;
20743;SDS011;56303;52.160;-0.428;2022-07-23T03:37:28;7.60;;;3.93;;
20743;SDS011;56303;52.160;-0.428;2022-07-23T03:39:55;5.07;;;3.70;;
20743;SDS011;56303;52.160;-0.428;2022-07-23T03:42:22;4.00;;;3.60;;
20743;SDS011;56303;52.160;-0.428;2022-07-23T03:44:48;7.43;;;4.53;;
20743;SDS011;56303;52.160;-0.428;2022-07-23T03:47:15;6.53;;;4.40;;
20743;SDS011;56303;52.160;-0.428;2022-07-23T03:49:43;7.13;;;4.47;;
20743;SDS011;56303;52.160;-0.428;2022-07-23T03:52:10;5.83;;;3.97;;
20743;SDS011;56303;52.160;-0.428;2022-07-23T03:54:37;8.27;;;4.47;;
20743;SDS011;56303;52.160;-0.428;2022-07-23T03:57:04;7.20;;;3.67;;
20743;SDS011;56303;52.160;-0.428;2022-07-23T03:59:31;7.83;;;4.50;;
20743;SDS011;56303;52.160;-0.428;2022-07-23T04:01:58;9.37;;;4.97;;
20743;SDS011;56303;52.160;-0.428;2022-07-23T04:04:25;5.97;;;4.17;;
20743;SDS011;56303;52.160;-0.428;2022-07-23T04:06:52;6.00;;;4.00;;
20743;SDS011;56303;52.160;-0.428;2022-07-23T04:09:19;5.73;;;4.07;;
20743;SDS011;56303;52.160;-0.428;2022-07-23T04:11:46;7.87;;;5.13;;
20743;SDS011;56303;52.160;-0.428;2022-07-23T04:14:13;8.53;;;4.80;;
20743;SDS011;56303;52.160;-0.428;2022-07-23T04:16:39;7.13;;;4.33;;
20743;SDS011;56303;52.160;-0.428;2022-07-23T04:19:06;7.90;;;4.40;;
20743;SDS011;56303;52.160;-0.428;2022-07-23T04:21:33;8.07;;;4.73;;
20743;SDS011;56303;52.160;-0.428;2022-07-23T04:24:00;6.53;;;4.60;;
20743;SDS011;56303;52.160;-0.428;2022-07-23T04:26:27;6.07;;;4.60;;
20743;SDS011;56303;52.160;-0.428;2022-07-23T04:28:54;7.07;;;4.67;;
20743;SDS011;56303;52.160;-0.428;2022-07-23T04:31:20;5.50;;;4.03;;
20743;SDS011;56303;52.160;-0.428;2022-07-23T04:33:47;9.13;;;4.90;;
20743;SDS011;56303;52.160;-0.428;2022-07-23T04:36:14;7.20;;;5.00;;
20743;SDS011;56303;52.160;-0.428;2022-07-23T04:38:41;9.20;;;4.93;;
20743;SDS011;56303;52.160;-0.428;2022-07-23T04:41:08;6.93;;;4.83;;
20743;SDS011;56303;52.160;-0.428;2022-07-23T04:43:35;7.23;;;5.07;;
20743;SDS011;56303;52.160;-0.428;2022-07-23T04:46:02;6.33;;;5.37;;
20743;SDS011;56303;52.160;-0.428;2022-07-23T04:48:29;7.40;;;4.93;;
20743;SDS011;56303;52.160;-0.428;2022-07-23T04:50:56;7.87;;;5.10;;
20743;SDS011;56303;52.160;-0.428;2022-07-23T04:53:23;10.77;;;5.53;;
20743;SDS011;56303;52.160;-0.428;2022-07-23T04:55:50;6.27;;;5.60;;
20743;SDS011;56303;52.160;-0.428;2022-07-23T04:58:17;6.43;;;5.30;;
20743;SDS011;56303;52.160;-0.428;2022-07-23T05:00:43;8.33;;;5.60;;
20743;SDS011;56303;52.160;-0.428;2022-07-23T05:03:10;7.50;;;5.20;;
20743;SDS011;56303;52.160;-0.428;2022-07-23T05:05:37;10.73;;;5.40;;
20743;SDS011;56303;52.160;-0.428;2022-07-23T05:08:04;6.73;;;4.73;;
20743;SDS011;56303;52.160;-0.428;2022-07-23T05:10:31;10.53;;;6.03;;
20743;SDS011;56303;52.160;-0.428;2022-07-23T05:12:58;8.00;;;5.57;;
20743;SDS011;56303;52.160;-0.428;2022-07-23T05:15:25;10.60;;;6.57;;
20743;SDS011;56303;52.160;-0.428;2022-07-23T05:17:52;8.73;;;5.93;;
20743;SDS011;56303;52.160;-0.428;2022-07-23T05:20:19;10.93;;;5.90;;
20743;SDS011;56303;52.160;-0.428;2022-07-23T05:22:46;9.50;;;6.50;;
20743;SDS011;56303;52.160;-0.428;2022-07-23T05:25:12;9.13;;;5.77;;
20743;SDS011;56303;52.160;-0.428;2022-07-23T05:27:39;7.77;;;6.10;;
20743;SDS011;56303;52.160;-0.428;2022-07-23T05:30:06;11.43;;;6.67;;
20743;SDS011;56303;52.160;-0.428;2022-07-23T05:32:34;9.27;;;6.17;;
20743;SDS011;56303;52.160;-0.428;2022-07-23T05:35:04;11.63;;;6.77;;
20743;SDS011;56303;52.160;-0.428;2022-07-23T05:37:31;10.23;;;6.80;;
20743;SDS011;56303;52.160;-0.428;2022-07-23T05:40:05;9.13;;;6.20;;
20743;SDS011;56303;52.160;-0.428;2022-07-23T05:42:34;8.83;;;6.60;;
20743;SDS011;56303;52.160;-0.428;2022-07-23T05:45:02;9.83;;;6.90;;
20743;SDS011;56303;52.160;-0.428;2022-07-23T05:47:38;10.40;;;6.80;;
20743;SDS011;56303;52.160;-0.428;2022-07-23T05:50:13;9.50;;;7.70;;
20743;SDS011;56303;52.160;-0.428;2022-07-23T05:52:40;12.53;;;7.80;;
20743;SDS011;56303;52.160;-0.428;2022-07-23T05:55:08;12.70;;;7.97;;
20743;SDS011;56303;52.160;-0.428;2022-07-23T05:57:36;10.83;;;7.33;;
20743;SDS011;56303;52.160;-0.428;2022-07-23T06:00:04;11.90;;;8.73;;
20743;SDS011;56303;52.160;-0.428;2022-07-23T06:02:32;14.90;;;9.23;;
20743;SDS011;56303;52.160;-0.428;2022-07-23T06:04:59;12.13;;;8.00;;
20743;SDS011;56303;52.160;-0.428;2022-07-23T06:07:26;13.43;;;9.23;;
20743;SDS011;56303;52.160;-0.428;2022-07-23T06:09:52;12.00;;;7.60;;
20743;SDS011;56303;52.160;-0.428;2022-07-23T06:12:20;13.90;;;8.57;;
20743;SDS011;56303;52.160;-0.428;2022-07-23T06:14:46;12.97;;;9.90;;
20743;SDS011;56303;52.160;-0.428;2022-07-23T06:17:15;16.03;;;9.43;;
20743;SDS011;56303;52.160;-0.428;2022-07-23T06:19:43;14.70;;;10.60;;
20743;SDS011;56303;52.160;-0.428;2022-07-23T06:22:10;16.23;;;10.10;;
20743;SDS011;56303;52.160;-0.428;2022-07-23T06:24:36;13.10;;;10.80;;
20743;SDS011;56303;52.160;-0.428;2022-07-23T06:27:03;16.83;;;11.93;;
20743;SDS011;56303;52.160;-0.428;2022-07-23T06:29:31;17.43;;;11.77;;
20743;SDS011;56303;52.160;-0.428;2022-07-23T06:31:58;12.27;;;10.87;;
20743;SDS011;56303;52.160;-0.428;2022-07-23T06:34:25;21.27;;;13.17;;
20743;SDS011;56303;52.160;-0.428;2022-07-23T06:36:52;13.83;;;12.33;;
20743;SDS011;56303;52.160;-0.428;2022-07-23T06:39:19;16.20;;;13.50;;
20743;SDS011;56303;52.160;-0.428;2022-07-23T06:41:46;16.57;;;12.53;;
20743;SDS011;56303;52.160;-0.428;2022-07-23T06:44:16;14.90;;;12.20;;
20743;SDS011;56303;52.160;-0.428;2022-07-23T06:46:43;13.43;;;11.90;;
20743;SDS011;56303;52.160;-0.428;2022-07-23T06:49:10;12.97;;;11.47;;
20743;SDS011;56303;52.160;-0.428;2022-07-23T06:51:37;17.23;;;14.00;;
20743;SDS011;56303;52.160;-0.428;2022-07-23T06:54:04;18.50;;;15.40;;
20743;SDS011;56303;52.160;-0.428;2022-07-23T06:56:31;19.63;;;15.83;;
20743;SDS011;56303;52.160;-0.428;2022-07-23T06:58:58;19.23;;;15.03;;
20743;SDS011;56303;52.160;-0.428;2022-07-23T07:01:25;18.07;;;13.87;;
20743;SDS011;56303;52.160;-0.428;2022-07-23T07:03:52;16.37;;;14.33;;
20743;SDS011;56303;52.160;-0.428;2022-07-23T07:06:19;22.43;;;17.37;;
20743;SDS011;56303;52.160;-0.428;2022-07-23T07:08:46;17.73;;;15.80;;
20743;SDS011;56303;52.160;-0.428;2022-07-23T07:11:13;20.60;;;16.67;;
20743;SDS011;56303;52.160;-0.428;2022-07-23T07:13:40;19.73;;;17.57;;
20743;SDS011;56303;52.160;-0.428;2022-07-23T07:16:07;20.33;;;18.03;;
20743;SDS011;56303;52.160;-0.428;2022-07-23T07:18:34;17.77;;;16.00;;
20743;SDS011;56303;52.160;-0.428;2022-07-23T07:21:01;22.10;;;18.37;;
20743;SDS011;56303;52.160;-0.428;2022-07-23T07:23:28;19.73;;;17.40;;
20743;SDS011;56303;52.160;-0.428;2022-07-23T07:25:55;22.30;;;19.27;;
20743;SDS011;56303;52.160;-0.428;2022-07-23T07:28:22;22.90;;;18.50;;
20743;SDS011;56303;52.160;-0.428;2022-07-23T07:30:49;21.40;;;19.13;;
20743;SDS011;56303;52.160;-0.428;2022-07-23T07:33:16;21.57;;;19.30;;
20743;SDS011;56303;52.160;-0.428;2022-07-23T07:35:43;22.40;;;19.57;;
20743;SDS011;56303;52.160;-0.428;2022-07-23T07:38:09;21.57;;;19.43;;
20743;SDS011;56303;52.160;-0.428;2022-07-23T07:40:36;20.63;;;18.50;;
20743;SDS011;56303;52.160;-0.428;2022-07-23T07:43:03;21.00;;;18.93;;
20743;SDS011;56303;52.160;-0.428;2022-07-23T07:45:31;21.90;;;18.30;;
20743;SDS011;56303;52.160;-0.428;2022-07-23T07:47:58;21.63;;;19.43;;
20743;SDS011;56303;52.160;-0.428;2022-07-23T07:50:25;20.20;;;17.57;;
20743;SDS011;56303;52.160;-0.428;2022-07-23T07:52:52;22.17;;;19.77;;
20743;SDS011;56303;52.160;-0.428;2022-07-23T07:55:19;18.90;;;16.97;;
20743;SDS011;56303;52.160;-0.428;2022-07-23T07:57:46;18.77;;;16.87;;
20743;SDS011;56303;52.160;-0.428;2022-07-23T08:00:15;18.80;;;16.77;;
20743;SDS011;56303;52.160;-0.428;2022-07-23T08:02:50;18.10;;;14.97;;
20743;SDS011;56303;52.160;-0.428;2022-07-23T08:05:19;17.30;;;15.53;;
20743;SDS011;56303;52.160;-0.428;2022-07-23T08:07:54;17.47;;;15.73;;
20743;SDS011;56303;52.160;-0.428;2022-07-23T08:10:22;18.20;;;16.30;;
20743;SDS011;56303;52.160;-0.428;2022-07-23T08:12:54;18.10;;;15.60;;
20743;SDS011;56303;52.160;-0.428;2022-07-23T08:15:23;18.10;;;15.70;;
20743;SDS011;56303;52.160;-0.428;2022-07-23T08:17:51;17.90;;;16.00;;
20743;SDS011;56303;52.160;-0.428;2022-07-23T08:20:20;17.73;;;15.60;;
20743;SDS011;56303;52.160;-0.428;2022-07-23T08:22:53;18.20;;;16.30;;
20743;SDS011;56303;52.160;-0.428;2022-07-23T08:25:28;16.67;;;14.80;;
20743;SDS011;56303;52.160;-0.428;2022-07-23T08:27:56;16.47;;;14.83;;
20743;SDS011;56303;52.160;-0.428;2022-07-23T08:30:25;17.90;;;15.33;;
20743;SDS011;56303;52.160;-0.428;2022-07-23T08:35:24;15.07;;;13.57;;
20743;SDS011;56303;52.160;-0.428;2022-07-23T08:37:54;15.77;;;13.63;;
20743;SDS011;56303;52.160;-0.428;2022-07-23T08:40:22;15.00;;;13.40;;
20743;SDS011;56303;52.160;-0.428;2022-07-23T08:42:50;14.30;;;12.50;;
20743;SDS011;56303;52.160;-0.428;2022-07-23T08:45:18;14.17;;;12.67;;
20743;SDS011;56303;52.160;-0.428;2022-07-23T08:47:50;13.67;;;12.03;;
20743;SDS011;56303;52.160;-0.428;2022-07-23T08:50:19;16.67;;;13.13;;
20743;SDS011;56303;52.160;-0.428;2022-07-23T08:52:50;14.63;;;13.07;;
20743;SDS011;56303;52.160;-0.428;2022-07-23T08:55:21;14.53;;;13.00;;
20743;SDS011;56303;52.160;-0.428;2022-07-23T08:57:49;12.07;;;10.87;;
20743;SDS011;56303;52.160;-0.428;2022-07-23T09:00:18;13.70;;;11.80;;
20743;SDS011;56303;52.160;-0.428;2022-07-23T09:02:46;12.87;;;11.10;;
20743;SDS011;56303;52.160;-0.428;2022-07-23T09:05:14;13.97;;;12.40;;
20743;SDS011;56303;52.160;-0.428;2022-07-23T09:10:30;12.13;;;10.93;;
20743;SDS011;56303;52.160;-0.428;2022-07-23T09:18:29;12.00;;;10.73;;
20743;SDS011;56303;52.160;-0.428;2022-07-23T09:24:10;12.17;;;9.10;;
20743;SDS011;56303;52.160;-0.428;2022-07-23T09:26:42;13.50;;;9.40;;
20743;SDS011;56303;52.160;-0.428;2022-07-23T09:29:20;12.20;;;8.43;;
20743;SDS011;56303;52.160;-0.428;2022-07-23T09:31:49;11.80;;;8.83;;
20743;SDS011;56303;52.160;-0.428;2022-07-23T09:37:14;9.13;;;7.20;;
20743;SDS011;56303;52.160;-0.428;2022-07-23T09:39:44;11.90;;;8.30;;
20743;SDS011;56303;52.160;-0.428;2022-07-23T09:42:16;8.53;;;6.87;;
20743;SDS011;56303;52.160;-0.428;2022-07-23T09:44:48;10.47;;;7.40;;
20743;SDS011;56303;52.160;-0.428;2022-07-23T09:47:19;8.10;;;5.97;;
20743;SDS011;56303;52.160;-0.428;2022-07-23T09:50:04;8.43;;;6.53;;
20743;SDS011;56303;52.160;-0.428;2022-07-23T09:52:35;10.57;;;7.13;;
20743;SDS011;56303;52.160;-0.428;2022-07-23T09:55:09;8.07;;;7.13;;
20743;SDS011;56303;52.160;-0.428;2022-07-23T09:57:36;7.93;;;7.10;;
20743;SDS011;56303;52.160;-0.428;2022-07-23T10:00:06;7.27;;;5.73;;
20743;SDS011;56303;52.160;-0.428;2022-07-23T10:02:38;8.07;;;5.13;;
20743;SDS011;56303;52.160;-0.428;2022-07-23T10:05:06;7.60;;;5.27;;
20743;SDS011;56303;52.160;-0.428;2022-07-23T10:07:35;5.63;;;5.03;;
20743;SDS011;56303;52.160;-0.428;2022-07-23T10:10:04;8.20;;;5.80;;
20743;SDS011;56303;52.160;-0.428;2022-07-23T10:12:32;10.53;;;6.17;;
20743;SDS011;56303;52.160;-0.428;2022-07-23T10:15:18;7.73;;;5.80;;
20743;SDS011;56303;52.160;-0.428;2022-07-23T10:17:45;6.90;;;5.93;;
20743;SDS011;56303;52.160;-0.428;2022-07-23T10:20:12;8.70;;;6.70;;
20743;SDS011;56303;52.160;-0.428;2022-07-23T10:22:40;6.97;;;5.60;;
20743;SDS011;56303;52.160;-0.428;2022-07-23T10:31:00;7.13;;;5.80;;
20743;SDS011;56303;52.160;-0.428;2022-07-23T10:33:46;8.73;;;6.57;;
20743;SDS011;56303;52.160;-0.428;2022-07-23T10:36:32;7.10;;;5.53;;
20743;SDS011;56303;52.160;-0.428;2022-07-23T10:39:05;9.80;;;5.60;;
20743;SDS011;56303;52.160;-0.428;2022-07-23T10:41:36;6.53;;;5.43;;
20743;SDS011;56303;52.160;-0.428;2022-07-23T10:44:09;6.97;;;5.93;;
20743;SDS011;56303;52.160;-0.428;2022-07-23T10:46:58;7.93;;;4.97;;
20743;SDS011;56303;52.160;-0.428;2022-07-23T10:49:30;8.97;;;5.00;;
20743;SDS011;56303;52.160;-0.428;2022-07-23T10:52:15;6.55;;;4.97;;
20743;SDS011;56303;52.160;-0.428;2022-07-23T10:54:47;6.28;;;5.03;;
20743;SDS011;56303;52.160;-0.428;2022-07-23T10:57:17;7.95;;;4.80;;
20743;SDS011;56303;52.160;-0.428;2022-07-23T11:02:40;8.38;;;5.03;;
20743;SDS011;56303;52.160;-0.428;2022-07-23T11:05:10;7.13;;;4.10;;
20743;SDS011;56303;52.160;-0.428;2022-07-23T11:18:59;5.63;;;4.30;;
20743;SDS011;56303;52.160;-0.428;2022-07-23T11:34:45;4.73;;;3.80;;
20743;SDS011;56303;52.160;-0.428;2022-07-23T11:39:58;7.47;;;3.93;;
20743;SDS011;56303;52.160;-0.428;2022-07-23T11:42:25;4.67;;;3.40;;
20743;SDS011;56303;52.160;-0.428;2022-07-23T11:44:57;5.33;;;3.33;;
20743;SDS011;56303;52.160;-0.428;2022-07-23T11:47:24;5.83;;;3.67;;
20743;SDS011;56303;52.160;-0.428;2022-07-23T11:49:53;5.37;;;3.43;;
20743;SDS011;56303;52.160;-0.428;2022-07-23T11:52:24;4.93;;;3.87;;
20743;SDS011;56303;52.160;-0.428;2022-07-23T11:57:28;8.00;;;4.20;;
20743;SDS011;56303;52.160;-0.428;2022-07-23T12:00:19;4.60;;;3.67;;
20743;SDS011;56303;52.160;-0.428;2022-07-23T12:02:50;4.82;;;3.28;;
20743;SDS011;56303;52.160;-0.428;2022-07-23T12:05:22;6.75;;;3.65;;
20743;SDS011;56303;52.160;-0.428;2022-07-23T12:07:51;5.97;;;3.67;;
20743;SDS011;56303;52.160;-0.428;2022-07-23T12:10:21;3.22;;;2.67;;
20743;SDS011;56303;52.160;-0.428;2022-07-23T12:13:03;4.68;;;3.05;;
20743;SDS011;56303;52.160;-0.428;2022-07-23T12:15:38;4.22;;;2.75;;
20743;SDS011;56303;52.160;-0.428;2022-07-23T12:18:08;2.95;;;2.60;;
20743;SDS011;56303;52.160;-0.428;2022-07-23T12:20:38;6.60;;;3.20;;
20743;SDS011;56303;52.160;-0.428;2022-07-23T12:23:16;3.85;;;2.90;;
20743;SDS011;56303;52.160;-0.428;2022-07-23T12:25:46;5.60;;;3.03;;
20743;SDS011;56303;52.160;-0.428;2022-07-23T12:30:59;5.78;;;2.67;;
20743;SDS011;56303;52.160;-0.428;2022-07-23T12:33:28;5.72;;;2.83;;
20743;SDS011;56303;52.160;-0.428;2022-07-23T12:36:00;5.60;;;3.17;;
20743;SDS011;56303;52.160;-0.428;2022-07-23T12:38:40;4.90;;;2.55;;
20743;SDS011;56303;52.160;-0.428;2022-07-23T12:41:07;5.30;;;3.30;;
20743;SDS011;56303;52.160;-0.428;2022-07-23T12:43:37;3.10;;;2.40;;
20743;SDS011;56303;52.160;-0.428;2022-07-23T12:46:16;3.50;;;2.60;;
20743;SDS011;56303;52.160;-0.428;2022-07-23T12:53:56;4.45;;;2.67;;
20743;SDS011;56303;52.160;-0.428;2022-07-23T12:56:31;4.10;;;2.50;;
20743;SDS011;56303;52.160;-0.428;2022-07-23T13:01:32;4.88;;;3.78;;
20743;SDS011;56303;52.160;-0.428;2022-07-23T13:06:45;2.63;;;2.20;;
20743;SDS011;56303;52.160;-0.428;2022-07-23T13:09:18;4.55;;;3.05;;
20743;SDS011;56303;52.160;-0.428;2022-07-23T13:11:50;2.50;;;2.30;;
20743;SDS011;56303;52.160;-0.428;2022-07-23T13:14:22;3.67;;;2.60;;
20743;SDS011;56303;52.160;-0.428;2022-07-23T13:16:50;3.03;;;2.20;;
20743;SDS011;56303;52.160;-0.428;2022-07-23T13:19:18;3.22;;;2.13;;
20743;SDS011;56303;52.160;-0.428;2022-07-23T13:21:47;3.85;;;2.47;;
20743;SDS011;56303;52.160;-0.428;2022-07-23T13:24:13;2.97;;;2.25;;
20743;SDS011;56303;52.160;-0.428;2022-07-23T13:26:41;2.08;;;1.90;;
20743;SDS011;56303;52.160;-0.428;2022-07-23T13:29:08;2.53;;;2.30;;
20743;SDS011;56303;52.160;-0.428;2022-07-23T13:31:36;2.85;;;2.08;;
20743;SDS011;56303;52.160;-0.428;2022-07-23T13:34:04;3.42;;;2.03;;
20743;SDS011;56303;52.160;-0.428;2022-07-23T13:36:33;3.53;;;2.25;;
20743;SDS011;56303;52.160;-0.428;2022-07-23T13:39:03;2.03;;;1.80;;
20743;SDS011;56303;52.160;-0.428;2022-07-23T13:41:31;2.42;;;2.10;;
20743;SDS011;56303;52.160;-0.428;2022-07-23T13:43:59;2.50;;;2.10;;
20743;SDS011;56303;52.160;-0.428;2022-07-23T13:46:26;2.30;;;2.10;;
20743;SDS011;56303;52.160;-0.428;2022-07-23T13:48:53;3.55;;;2.17;;
20743;SDS011;56303;52.160;-0.428;2022-07-23T13:51:20;1.83;;;1.52;;
20743;SDS011;56303;52.160;-0.428;2022-07-23T13:53:49;3.47;;;1.95;;
20743;SDS011;56303;52.160;-0.428;2022-07-23T13:56:16;1.80;;;1.67;;
20743;SDS011;56303;52.160;-0.428;2022-07-23T13:58:43;2.13;;;1.63;;
20743;SDS011;56303;52.160;-0.428;2022-07-23T14:01:10;3.15;;;1.88;;
20743;SDS011;56303;52.160;-0.428;2022-07-23T14:03:37;2.50;;;1.92;;
20743;SDS011;56303;52.160;-0.428;2022-07-23T14:06:05;2.15;;;1.73;;
20743;SDS011;56303;52.160;-0.428;2022-07-23T14:08:42;2.10;;;1.70;;
20743;SDS011;56303;52.160;-0.428;2022-07-23T14:11:09;1.63;;;1.52;;
20743;SDS011;56303;52.160;-0.428;2022-07-23T14:13:37;2.78;;;2.05;;
20743;SDS011;56303;52.160;-0.428;2022-07-23T14:16:04;2.60;;;2.00;;
20743;SDS011;56303;52.160;-0.428;2022-07-23T14:18:31;2.35;;;1.77;;
20743;SDS011;56303;52.160;-0.428;2022-07-23T14:20:59;1.73;;;1.63;;
20743;SDS011;56303;52.160;-0.428;2022-07-23T14:23:27;2.00;;;1.90;;
20743;SDS011;56303;52.160;-0.428;2022-07-23T14:25:55;3.78;;;2.00;;
20743;SDS011;56303;52.160;-0.428;2022-07-23T14:28:23;2.87;;;1.90;;
20743;SDS011;56303;52.160;-0.428;2022-07-23T14:30:50;4.13;;;1.80;;
20743;SDS011;56303;52.160;-0.428;2022-07-23T14:33:17;2.47;;;1.73;;
20743;SDS011;56303;52.160;-0.428;2022-07-23T14:35:44;2.47;;;2.00;;
20743;SDS011;56303;52.160;-0.428;2022-07-23T14:38:11;2.10;;;1.70;;
20743;SDS011;56303;52.160;-0.428;2022-07-23T14:40:39;3.38;;;1.98;;
20743;SDS011;56303;52.160;-0.428;2022-07-23T14:43:06;2.97;;;1.90;;
20743;SDS011;56303;52.160;-0.428;2022-07-23T14:45:37;2.35;;;1.88;;
20743;SDS011;56303;52.160;-0.428;2022-07-23T14:48:04;2.00;;;1.90;;
20743;SDS011;56303;52.160;-0.428;2022-07-23T14:50:33;6.53;;;1.80;;
20743;SDS011;56303;52.160;-0.428;2022-07-23T14:53:00;2.07;;;1.60;;
20743;SDS011;56303;52.160;-0.428;2022-07-23T14:55:28;2.07;;;1.87;;
20743;SDS011;56303;52.160;-0.428;2022-07-23T14:57:57;1.80;;;1.70;;
20743;SDS011;56303;52.160;-0.428;2022-07-23T15:00:26;1.97;;;1.83;;
20743;SDS011;56303;52.160;-0.428;2022-07-23T15:02:53;2.40;;;1.70;;
20743;SDS011;56303;52.160;-0.428;2022-07-23T15:05:21;3.27;;;2.17;;
20743;SDS011;56303;52.160;-0.428;2022-07-23T15:07:50;2.33;;;1.80;;
20743;SDS011;56303;52.160;-0.428;2022-07-23T15:10:17;2.93;;;1.80;;
20743;SDS011;56303;52.160;-0.428;2022-07-23T15:12:47;2.10;;;1.90;;
20743;SDS011;56303;52.160;-0.428;2022-07-23T15:15:14;3.43;;;1.73;;
20743;SDS011;56303;52.160;-0.428;2022-07-23T15:17:43;1.80;;;1.70;;
20743;SDS011;56303;52.160;-0.428;2022-07-23T15:20:10;2.67;;;1.40;;
20743;SDS011;56303;52.160;-0.428;2022-07-23T15:22:40;2.17;;;1.63;;
20743;SDS011;56303;52.160;-0.428;2022-07-23T15:25:07;1.60;;;1.50;;
20743;SDS011;56303;52.160;-0.428;2022-07-23T15:27:37;2.57;;;1.70;;
20743;SDS011;56303;52.160;-0.428;2022-07-23T15:30:04;2.83;;;1.70;;
20743;SDS011;56303;52.160;-0.428;2022-07-23T15:32:33;1.77;;;1.30;;
20743;SDS011;56303;52.160;-0.428;2022-07-23T15:35:00;4.38;;;1.88;;
20743;SDS011;56303;52.160;-0.428;2022-07-23T15:37:28;1.52;;;1.42;;
20743;SDS011;56303;52.160;-0.428;2022-07-23T15:39:56;1.73;;;1.50;;
20743;SDS011;56303;52.160;-0.428;2022-07-23T15:42:22;3.10;;;1.63;;
20743;SDS011;56303;52.160;-0.428;2022-07-23T15:44:50;1.63;;;1.50;;